Time;durP1;ratioP1;P1;durP2;ratioP2;P2;SDS_P1;SDS_P2;PMS_P1;PMS_P2;Temp;Humidity;BMP_temperature;BMP_pressure;BME280_temperature;BME280_humidity;BME280_pressure;Samples;Min_cycle;Max_cycle;Signal;HPM_P1;HPM_P2
2021/01/09 00:02:24;;;;;;;15.60;10.60;;;1.60;98.90;;;;;;4989847;28;20038;-43
2021/01/09 00:04:49;;;;;;;17.73;11.80;;;1.60;98.90;;;;;;4989976;28;20466;-43
2021/01/09 00:07:15;;;;;;;16.13;11.93;;;1.60;98.90;;;;;;4989849;28;20158;-43
2021/01/09 00:09:40;;;;;;;14.63;10.43;;;1.60;99.00;;;;;;4990337;28;20022;-43
2021/01/09 00:12:11;;;;;;;15.30;10.93;;;1.60;99.00;;;;;;4989836;28;20034;-43
2021/01/09 00:14:36;;;;;;;15.10;10.48;;;1.60;99.00;;;;;;4989987;28;20029;-42
2021/01/09 00:17:02;;;;;;;15.05;10.18;;;1.60;99.10;;;;;;4989882;28;20034;-42
2021/01/09 00:19:28;;;;;;;15.65;11.00;;;1.60;99.10;;;;;;4989084;28;20041;-43
2021/01/09 00:21:53;;;;;;;16.52;10.68;;;1.60;99.00;;;;;;4990501;28;20169;-43
2021/01/09 00:24:19;;;;;;;15.60;9.88;;;1.60;99.00;;;;;;4989571;28;20019;-43
2021/01/09 00:26:44;;;;;;;14.10;10.18;;;1.60;99.00;;;;;;4990086;28;20136;-43
2021/01/09 00:29:10;;;;;;;14.60;10.50;;;1.60;99.00;;;;;;4989635;28;20030;-42
2021/01/09 00:31:35;;;;;;;16.33;10.27;;;1.60;98.90;;;;;;4989690;28;20089;-43
2021/01/09 00:34:01;;;;;;;15.32;10.55;;;1.70;98.90;;;;;;4989682;28;20563;-43
2021/01/09 00:36:27;;;;;;;15.90;10.32;;;1.60;98.80;;;;;;4989470;28;20725;-43
2021/01/09 00:38:53;;;;;;;15.57;10.15;;;1.70;98.80;;;;;;4989825;28;20489;-42
2021/01/09 00:41:29;;;;;;;15.10;11.00;;;1.70;98.80;;;;;;4988756;28;20026;-43
2021/01/09 00:43:56;;;;;;;16.70;11.95;;;1.60;98.80;;;;;;4989925;28;20109;-43
2021/01/09 00:46:22;;;;;;;16.15;11.32;;;1.60;98.70;;;;;;4975641;28;20029;-43
2021/01/09 00:48:48;;;;;;;14.38;10.30;;;1.60;98.60;;;;;;4969562;28;20069;-42
2021/01/09 00:51:14;;;;;;;13.65;10.77;;;1.60;98.60;;;;;;4969071;28;20059;-43
2021/01/09 00:53:40;;;;;;;15.25;11.68;;;1.60;98.70;;;;;;4969480;28;20034;-43
2021/01/09 00:56:06;;;;;;;16.17;10.93;;;1.50;98.70;;;;;;4969779;28;20759;-43
2021/01/09 00:58:33;;;;;;;22.65;13.30;;;1.50;98.70;;;;;;4969065;28;20390;-44
2021/01/09 01:00:58;;;;;;;13.60;10.13;;;1.50;98.60;;;;;;4969505;28;20027;-43
2021/01/09 01:03:24;;;;;;;16.45;11.88;;;1.50;98.60;;;;;;4969097;28;20054;-44
2021/01/09 01:05:50;;;;;;;14.63;10.93;;;1.40;98.50;;;;;;4970063;28;20046;-44
2021/01/09 01:08:15;;;;;;;18.00;11.98;;;1.40;98.50;;;;;;4967209;28;20034;-44
2021/01/09 01:10:41;;;;;;;15.82;11.00;;;1.40;98.50;;;;;;4969934;28;20113;-42
2021/01/09 01:13:06;;;;;;;19.35;13.13;;;1.40;98.50;;;;;;4969803;28;20042;-43
2021/01/09 01:15:32;;;;;;;13.82;10.90;;;1.40;98.50;;;;;;4968718;28;20027;-43
2021/01/09 01:17:57;;;;;;;16.38;11.38;;;1.30;98.50;;;;;;4969838;28;20058;-42
2021/01/09 01:20:23;;;;;;;18.17;11.75;;;1.30;98.50;;;;;;4969598;28;20038;-42
2021/01/09 01:22:48;;;;;;;16.75;11.30;;;1.30;98.50;;;;;;4968979;28;20066;-42
2021/01/09 01:25:15;;;;;;;15.10;10.40;;;1.30;98.50;;;;;;4968904;28;20045;-44
2021/01/09 01:27:41;;;;;;;13.63;10.45;;;1.30;98.60;;;;;;4969682;28;20035;-43
2021/01/09 01:30:07;;;;;;;19.55;13.40;;;1.20;98.50;;;;;;4968976;28;20374;-43
2021/01/09 01:32:33;;;;;;;20.23;13.40;;;1.20;98.50;;;;;;4968744;28;20120;-43
2021/01/09 01:34:58;;;;;;;14.23;10.70;;;1.20;98.50;;;;;;4969675;28;20039;-43
2021/01/09 01:37:24;;;;;;;15.02;10.23;;;1.20;98.50;;;;;;4968666;28;20431;-43
2021/01/09 01:39:49;;;;;;;18.83;12.77;;;1.20;98.50;;;;;;4968941;28;20023;-44
2021/01/09 01:42:15;;;;;;;15.48;11.38;;;1.20;98.50;;;;;;4968811;28;20610;-43
2021/01/09 01:44:40;;;;;;;21.23;13.20;;;1.20;98.60;;;;;;4968651;28;20134;-43
2021/01/09 01:47:14;;;;;;;16.58;12.73;;;1.20;98.60;;;;;;4969184;28;20049;-42
2021/01/09 01:49:43;;;;;;;14.90;11.88;;;1.20;98.60;;;;;;4968762;28;20504;-42
2021/01/09 01:52:08;;;;;;;19.10;12.57;;;1.10;98.60;;;;;;4967777;28;20038;-42
2021/01/09 01:54:34;;;;;;;20.80;14.77;;;1.20;98.60;;;;;;4968362;28;20031;-44
2021/01/09 01:57:01;;;;;;;18.27;12.15;;;1.20;98.60;;;;;;4968629;28;20038;-43
2021/01/09 01:59:27;;;;;;;18.30;12.38;;;1.20;98.60;;;;;;4968558;28;20134;-44
2021/01/09 02:01:53;;;;;;;15.85;11.30;;;1.20;98.60;;;;;;4968963;28;20106;-43
2021/01/09 02:04:18;;;;;;;18.45;12.48;;;1.10;98.50;;;;;;4967618;28;20054;-43
2021/01/09 02:06:46;;;;;;;18.55;12.75;;;1.20;98.60;;;;;;4969039;28;20054;-43
2021/01/09 02:09:22;;;;;;;18.65;12.63;;;1.20;98.60;;;;;;4968520;28;20042;-43
2021/01/09 02:12:09;;;;;;;12.80;10.57;;;1.20;98.60;;;;;;4968063;28;20079;-42
2021/01/09 02:14:42;;;;;;;18.25;14.02;;;1.10;98.50;;;;;;4968374;28;20030;-43
2021/01/09 02:17:09;;;;;;;21.35;13.70;;;1.10;98.40;;;;;;4968692;28;20031;-42
2021/01/09 02:19:38;;;;;;;16.15;12.23;;;1.10;98.40;;;;;;4967993;28;20057;-44
2021/01/09 02:22:05;;;;;;;15.00;10.73;;;1.00;98.30;;;;;;4968617;28;20031;-43
2021/01/09 02:24:32;;;;;;;18.55;12.73;;;1.00;98.30;;;;;;4968174;28;20047;-43
2021/01/09 02:26:58;;;;;;;14.25;10.07;;;0.90;98.40;;;;;;4968315;28;20129;-41
2021/01/09 02:29:25;;;;;;;14.73;11.07;;;0.90;98.40;;;;;;4968330;28;20027;-42
2021/01/09 02:32:03;;;;;;;13.80;10.40;;;0.90;98.40;;;;;;4968497;28;20034;-43
2021/01/09 02:34:40;;;;;;;15.35;10.75;;;0.80;98.40;;;;;;4967931;28;20035;-43
2021/01/09 02:37:07;;;;;;;16.63;11.52;;;0.80;98.70;;;;;;4968803;28;20058;-43
2021/01/09 02:39:32;;;;;;;15.15;10.48;;;0.70;98.40;;;;;;4967358;28;20168;-43
2021/01/09 02:42:00;;;;;;;23.92;14.10;;;0.70;98.40;;;;;;4968612;28;20023;-42
2021/01/09 02:44:25;;;;;;;17.92;11.90;;;0.70;98.50;;;;;;4967985;28;20034;-42
2021/01/09 02:46:51;;;;;;;15.52;11.20;;;0.70;98.50;;;;;;4967884;28;20023;-43
2021/01/09 02:49:16;;;;;;;16.85;11.07;;;0.70;98.50;;;;;;4967831;28;20033;-43
2021/01/09 02:51:42;;;;;;;14.43;10.45;;;0.70;98.50;;;;;;4966758;28;20059;-43
2021/01/09 02:54:07;;;;;;;16.38;11.50;;;0.60;98.50;;;;;;4966119;28;20554;-43
2021/01/09 02:56:33;;;;;;;18.02;12.05;;;0.60;98.50;;;;;;4966043;28;20023;-43
2021/01/09 02:58:58;;;;;;;19.23;13.27;;;0.60;98.60;;;;;;4966956;28;20022;-43
2021/01/09 03:01:28;;;;;;;17.50;12.32;;;0.60;98.60;;;;;;4965682;28;20375;-43
2021/01/09 03:03:54;;;;;;;16.20;11.02;;;0.60;98.60;;;;;;4966151;28;20050;-43
2021/01/09 03:06:19;;;;;;;16.60;10.50;;;0.60;98.60;;;;;;4967062;28;20021;-43
2021/01/09 03:08:45;;;;;;;16.13;11.40;;;0.60;98.60;;;;;;4967750;28;20052;-42
2021/01/09 03:11:11;;;;;;;18.75;12.75;;;0.50;98.60;;;;;;4967795;28;20822;-43
2021/01/09 03:13:36;;;;;;;15.07;10.25;;;0.60;98.60;;;;;;4967652;28;20057;-42
2021/01/09 03:16:02;;;;;;;13.80;9.65;;;0.60;98.60;;;;;;4967578;28;20038;-44
2021/01/09 03:18:27;;;;;;;14.75;10.25;;;0.50;98.60;;;;;;4967259;28;20455;-43
2021/01/09 03:20:53;;;;;;;13.02;8.70;;;0.50;98.50;;;;;;4968352;28;20045;-42
2021/01/09 03:23:18;;;;;;;13.60;9.13;;;0.50;98.50;;;;;;4967138;28;20110;-43
2021/01/09 03:25:44;;;;;;;13.95;9.00;;;0.50;98.50;;;;;;4968290;28;20031;-42
2021/01/09 03:28:09;;;;;;;12.10;8.32;;;0.50;98.60;;;;;;4970920;28;20080;-43
2021/01/09 03:30:35;;;;;;;11.23;8.32;;;0.40;98.60;;;;;;4970690;28;20065;-43
2021/01/09 03:33:00;;;;;;;12.88;8.98;;;0.40;98.60;;;;;;4971435;28;20120;-43
2021/01/09 03:35:26;;;;;;;11.43;8.15;;;0.40;98.70;;;;;;4971098;28;20027;-45
2021/01/09 03:37:52;;;;;;;11.48;8.43;;;0.40;98.60;;;;;;4971571;28;20640;-44
2021/01/09 03:40:18;;;;;;;10.80;7.90;;;0.40;98.60;;;;;;4970961;28;20061;-42
2021/01/09 03:42:44;;;;;;;11.60;9.00;;;0.40;98.50;;;;;;4969220;28;20514;-42
2021/01/09 03:45:10;;;;;;;10.63;7.68;;;0.40;98.50;;;;;;4969822;28;20126;-43
2021/01/09 03:47:35;;;;;;;15.65;9.45;;;0.40;98.60;;;;;;4969253;28;20034;-43
2021/01/09 03:50:02;;;;;;;9.82;7.38;;;0.40;98.80;;;;;;4969759;28;20209;-43
2021/01/09 03:52:28;;;;;;;10.95;7.82;;;0.40;98.70;;;;;;4968864;28;20062;-43
2021/01/09 03:54:53;;;;;;;11.13;7.55;;;0.40;98.70;;;;;;4969427;28;20386;-43
2021/01/09 03:57:19;;;;;;;11.35;8.40;;;0.40;98.70;;;;;;4969478;28;20081;-43
2021/01/09 03:59:44;;;;;;;10.00;7.85;;;0.40;98.70;;;;;;4971155;28;20034;-43
2021/01/09 04:02:09;;;;;;;9.93;7.72;;;0.40;98.60;;;;;;4970494;28;20089;-43
2021/01/09 04:04:35;;;;;;;13.18;8.93;;;0.40;98.60;;;;;;4970465;28;20521;-42
2021/01/09 04:07:00;;;;;;;11.88;8.70;;;0.40;98.60;;;;;;4971021;28;20030;-42
2021/01/09 04:09:26;;;;;;;10.18;7.78;;;0.40;98.50;;;;;;4970590;28;20105;-43
2021/01/09 04:11:51;;;;;;;10.07;7.97;;;0.40;98.50;;;;;;4970444;28;20208;-43
2021/01/09 04:14:17;;;;;;;9.60;7.00;;;0.40;98.40;;;;;;4970602;28;20498;-42
2021/01/09 04:16:42;;;;;;;9.25;6.30;;;0.30;98.40;;;;;;4970789;28;20015;-43
2021/01/09 04:19:08;;;;;;;10.93;7.75;;;0.30;98.40;;;;;;4970346;28;20057;-43
2021/01/09 04:21:51;;;;;;;9.52;7.70;;;0.30;98.50;;;;;;4970524;28;20023;-43
2021/01/09 04:24:18;;;;;;;10.55;7.97;;;0.30;98.60;;;;;;4970123;28;20121;-43
2021/01/09 04:26:43;;;;;;;11.88;8.10;;;0.20;98.50;;;;;;4970525;28;20026;-43
2021/01/09 04:29:09;;;;;;;11.32;8.05;;;0.20;98.50;;;;;;4970142;28;20031;-43
2021/01/09 04:31:34;;;;;;;12.15;9.27;;;0.20;98.60;;;;;;4969604;28;20031;-43
2021/01/09 04:34:00;;;;;;;11.05;7.97;;;0.20;98.60;;;;;;4970490;28;20050;-42
2021/01/09 04:36:25;;;;;;;11.35;8.30;;;0.10;98.60;;;;;;4970086;28;20027;-43
2021/01/09 04:38:51;;;;;;;10.18;8.30;;;0.20;98.60;;;;;;4969565;28;20056;-42
2021/01/09 04:41:20;;;;;;;9.48;7.22;;;0.10;98.60;;;;;;4969657;28;20100;-43
2021/01/09 04:43:48;;;;;;;9.95;7.00;;;0.10;98.70;;;;;;4970458;28;20026;-42
2021/01/09 04:46:17;;;;;;;12.40;6.80;;;0.10;98.60;;;;;;4969259;28;20070;-42
2021/01/09 04:48:44;;;;;;;10.88;8.25;;;0.10;98.60;;;;;;4969952;28;20509;-42
2021/01/09 04:51:10;;;;;;;11.05;7.35;;;0.10;98.60;;;;;;4970389;28;20062;-43
2021/01/09 04:53:39;;;;;;;11.85;8.73;;;0.10;98.60;;;;;;4969167;28;20098;-44
2021/01/09 04:56:05;;;;;;;15.02;9.00;;;0.10;98.60;;;;;;4969891;28;20058;-43
2021/01/09 04:58:31;;;;;;;10.90;8.40;;;0.10;98.70;;;;;;4969322;28;20117;-43
2021/01/09 05:00:57;;;;;;;11.10;8.85;;;0.00;98.70;;;;;;4969559;28;20026;-43
2021/01/09 05:03:22;;;;;;;12.95;8.90;;;0.00;98.80;;;;;;4969275;28;20031;-42
2021/01/09 05:05:49;;;;;;;11.00;8.50;;;0.00;98.80;;;;;;4969915;28;20502;-42
2021/01/09 05:08:14;;;;;;;15.23;9.32;;;0.10;98.80;;;;;;4969515;28;20029;-43
2021/01/09 05:10:40;;;;;;;17.52;11.32;;;0.10;98.70;;;;;;4969770;28;20031;-42
2021/01/09 05:13:06;;;;;;;13.18;8.82;;;0.10;98.70;;;;;;4969541;28;20050;-42
2021/01/09 05:15:38;;;;;;;13.43;9.27;;;0.10;98.70;;;;;;4969143;28;20027;-43
2021/01/09 05:18:05;;;;;;;14.57;9.85;;;0.10;98.80;;;;;;4969708;28;20075;-43
2021/01/09 05:20:31;;;;;;;12.18;8.60;;;0.10;98.90;;;;;;4968953;28;20427;-43
2021/01/09 05:22:59;;;;;;;14.02;9.35;;;0.10;98.80;;;;;;4969182;28;20537;-42
2021/01/09 05:25:26;;;;;;;14.57;8.80;;;0.10;98.80;;;;;;4969002;28;20689;-42
2021/01/09 05:27:54;;;;;;;14.40;9.52;;;0.10;98.70;;;;;;4969045;28;20187;-43
2021/01/09 05:30:20;;;;;;;17.73;9.75;;;0.10;98.80;;;;;;4968983;28;20382;-43
2021/01/09 05:32:45;;;;;;;18.27;9.93;;;0.10;98.70;;;;;;4969791;28;20038;-42
2021/01/09 05:35:14;;;;;;;18.15;10.60;;;0.10;98.70;;;;;;4968665;28;20042;-43
2021/01/09 05:37:40;;;;;;;20.10;10.57;;;0.10;98.70;;;;;;4969218;28;20035;-43
2021/01/09 05:40:06;;;;;;;16.30;10.00;;;0.10;98.90;;;;;;4969596;28;20035;-43
2021/01/09 05:42:34;;;;;;;13.93;9.07;;;0.00;98.60;;;;;;4968034;28;20398;-42
2021/01/09 05:45:00;;;;;;;17.05;9.25;;;0.00;98.60;;;;;;4969206;28;20487;-43
2021/01/09 05:47:27;;;;;;;15.00;8.68;;;0.00;98.60;;;;;;4968775;28;20242;-43
2021/01/09 05:49:55;;;;;;;12.70;8.05;;;0.00;98.60;;;;;;4967245;28;20061;-43
2021/01/09 05:52:23;;;;;;;12.40;7.20;;;-0.10;98.60;;;;;;4967998;28;20133;-43
2021/01/09 05:54:57;;;;;;;13.20;7.13;;;-0.10;98.60;;;;;;4969073;28;20184;-42
2021/01/09 05:57:31;;;;;;;14.73;8.18;;;-0.10;98.60;;;;;;4968206;28;20421;-42
2021/01/09 05:59:59;;;;;;;14.18;9.43;;;-0.10;98.70;;;;;;4968200;28;20498;-43
2021/01/09 06:02:25;;;;;;;13.13;8.32;;;-0.10;98.70;;;;;;4968043;28;20038;-43
2021/01/09 06:04:55;;;;;;;10.98;8.32;;;-0.10;98.70;;;;;;4967555;28;20561;-41
2021/01/09 06:07:33;;;;;;;14.52;9.10;;;-0.10;99.10;;;;;;4968272;28;20030;-43
2021/01/09 06:10:11;;;;;;;15.15;9.60;;;-0.10;99.30;;;;;;4968936;28;20030;-43
2021/01/09 06:12:42;;;;;;;12.65;8.73;;;0.00;99.20;;;;;;4968536;28;20091;-43
2021/01/09 06:15:13;;;;;;;12.05;8.30;;;0.00;99.10;;;;;;4968652;28;20034;-44
2021/01/09 06:17:39;;;;;;;13.32;8.95;;;0.00;99.10;;;;;;4968112;28;20070;-43
2021/01/09 06:20:05;;;;;;;11.90;8.15;;;0.00;99.00;;;;;;4968827;28;20065;-42
2021/01/09 06:22:31;;;;;;;15.05;8.23;;;0.00;99.00;;;;;;4967879;28;20090;-42
2021/01/09 06:24:56;;;;;;;12.48;8.57;;;0.00;99.10;;;;;;4968191;28;20027;-42
2021/01/09 06:27:27;;;;;;;12.40;8.15;;;0.10;99.10;;;;;;4967718;28;20097;-43
2021/01/09 06:29:58;;;;;;;14.45;8.90;;;0.10;99.10;;;;;;4968687;28;20471;-43
2021/01/09 06:32:28;;;;;;;10.98;7.90;;;0.10;99.00;;;;;;4966980;28;20325;-44
2021/01/09 06:34:54;;;;;;;12.75;8.75;;;0.10;99.10;;;;;;4968411;28;20084;-43
2021/01/09 06:37:23;;;;;;;11.27;8.18;;;0.20;99.20;;;;;;4967971;28;20468;-43
2021/01/09 06:39:50;;;;;;;11.55;8.23;;;0.30;99.20;;;;;;4967899;28;20098;-43
2021/01/09 06:42:18;;;;;;;13.52;8.75;;;0.30;99.10;;;;;;4967603;28;20054;-43
2021/01/09 06:44:51;;;;;;;14.18;9.43;;;0.40;99.10;;;;;;4968101;28;20023;-43
2021/01/09 06:47:30;;;;;;;18.17;12.25;;;0.40;99.00;;;;;;4967533;28;20042;-42
2021/01/09 06:50:18;;;;;;;16.15;11.35;;;0.40;99.00;;;;;;4968110;28;20027;-43
2021/01/09 06:52:53;;;;;;;14.65;10.43;;;0.50;99.00;;;;;;4967723;28;20043;-43
2021/01/09 06:55:36;;;;;;;17.42;11.20;;;0.50;98.90;;;;;;4967779;28;20035;-42
2021/01/09 06:58:06;;;;;;;16.38;11.77;;;0.50;98.90;;;;;;4968178;28;20078;-43
2021/01/09 07:00:32;;;;;;;16.73;10.05;;;0.50;98.90;;;;;;4967872;28;20059;-42
2021/01/09 07:03:17;;;;;;;14.73;9.13;;;0.50;98.90;;;;;;4972155;28;20073;-44
2021/01/09 07:05:56;;;;;;;11.68;7.93;;;0.50;98.90;;;;;;4971848;28;20100;-43
2021/01/09 07:08:29;;;;;;;10.88;8.40;;;0.50;98.80;;;;;;4971118;28;20066;-43
2021/01/09 07:11:00;;;;;;;12.38;7.82;;;0.40;98.70;;;;;;4972054;28;20030;-42
2021/01/09 07:13:27;;;;;;;13.55;8.23;;;0.40;98.80;;;;;;4970659;28;20375;-42
2021/01/09 07:16:13;;;;;;;13.18;7.35;;;0.40;99.00;;;;;;4971996;28;20035;-42
2021/01/09 07:18:48;;;;;;;14.25;7.75;;;0.50;99.10;;;;;;4971955;28;20034;-43
2021/01/09 07:21:18;;;;;;;16.88;8.32;;;0.50;99.10;;;;;;4970867;28;20398;-43
2021/01/09 07:23:55;;;;;;;9.13;6.72;;;0.60;99.10;;;;;;4971661;28;20031;-43
2021/01/09 07:26:23;;;;;;;18.45;10.55;;;0.70;99.10;;;;;;4971385;28;20114;-43
2021/01/09 07:28:50;;;;;;;15.65;9.27;;;0.70;99.10;;;;;;4971254;28;20031;-43
2021/01/09 07:31:15;;;;;;;14.75;8.82;;;0.80;99.10;;;;;;4971418;28;20042;-44
2021/01/09 07:33:45;;;;;;;16.38;9.85;;;0.90;99.10;;;;;;4971613;28;20034;-43
2021/01/09 07:36:13;;;;;;;13.57;8.25;;;1.00;99.00;;;;;;4970777;28;20462;-43
2021/01/09 07:38:48;;;;;;;12.88;8.18;;;1.00;99.00;;;;;;4971514;28;20062;-43
2021/01/09 07:41:34;;;;;;;13.68;9.18;;;1.00;98.90;;;;;;4971099;28;20026;-43
2021/01/09 07:44:18;;;;;;;17.60;11.00;;;1.00;98.80;;;;;;4971247;28;20054;-43
2021/01/09 07:46:49;;;;;;;;;;;1.00;98.80;;;;;;4971787;28;20086;-42
2021/01/09 07:49:30;;;;;;;17.85;10.82;;;1.00;98.70;;;;;;4970416;28;19917;-43
2021/01/09 07:51:59;;;;;;;13.30;8.65;;;0.90;98.70;;;;;;4971459;28;20052;-43
2021/01/09 07:54:41;;;;;;;12.85;7.85;;;0.90;98.80;;;;;;4970872;28;20038;-43
2021/01/09 07:57:18;;;;;;;9.93;7.45;;;1.00;98.90;;;;;;4970925;28;20023;-43
2021/01/09 07:59:55;;;;;;;16.80;9.02;;;1.00;98.90;;;;;;4971009;28;20149;-42
2021/01/09 08:02:31;;;;;;;13.40;9.38;;;1.10;99.00;;;;;;4970583;28;20080;-42
2021/01/09 08:05:19;;;;;;;13.25;9.70;;;1.10;98.90;;;;;;4970339;28;20478;-43
2021/01/09 08:07:56;;;;;;;13.35;8.35;;;1.10;98.90;;;;;;4971231;28;20033;-44
2021/01/09 08:10:29;;;;;;;17.02;10.35;;;1.10;98.80;;;;;;4969995;28;20390;-44
2021/01/09 08:12:59;;;;;;;15.60;10.70;;;1.10;98.80;;;;;;4969726;28;20108;-43
2021/01/09 08:15:27;;;;;;;16.70;9.75;;;1.20;98.90;;;;;;4970207;28;20097;-43
2021/01/09 08:17:53;;;;;;;14.65;9.25;;;1.30;98.90;;;;;;4970645;28;20066;-43
2021/01/09 08:20:19;;;;;;;13.48;8.20;;;1.30;98.90;;;;;;4970318;28;20045;-43
2021/01/09 08:22:57;;;;;;;10.75;8.40;;;1.30;98.90;;;;;;4970785;28;20455;-43
2021/01/09 08:25:26;;;;;;;12.98;8.57;;;1.40;98.80;;;;;;4969708;28;20521;-43
2021/01/09 08:27:54;;;;;;;10.82;8.73;;;1.40;98.90;;;;;;4970791;28;20019;-44
2021/01/09 08:30:22;;;;;;;15.48;8.27;;;1.40;98.90;;;;;;4969930;28;20435;-43
2021/01/09 08:32:48;;;;;;;14.13;8.05;;;1.40;98.90;;;;;;4971174;28;20078;-42
2021/01/09 08:35:15;;;;;;;11.45;7.72;;;1.50;98.90;;;;;;4969697;28;20545;-43
2021/01/09 08:37:40;;;;;;;15.57;10.43;;;1.50;98.90;;;;;;4970279;28;20030;-44
2021/01/09 08:40:11;;;;;;;14.52;10.52;;;1.60;98.90;;;;;;4985894;28;20050;-44
2021/01/09 08:42:36;;;;;;;17.02;11.02;;;1.60;98.80;;;;;;4970107;28;20118;-43
2021/01/09 08:45:03;;;;;;;15.07;9.88;;;1.70;98.70;;;;;;4980456;28;20510;-43
2021/01/09 08:47:29;;;;;;;12.65;9.00;;;1.70;98.60;;;;;;4980294;28;20038;-42
2021/01/09 08:49:57;;;;;;;11.85;8.20;;;1.70;98.60;;;;;;4988778;28;20026;-43
2021/01/09 08:52:25;;;;;;;11.50;8.27;;;1.70;98.60;;;;;;4987179;28;20049;-44
2021/01/09 08:54:54;;;;;;;14.10;9.25;;;1.70;98.50;;;;;;4988727;28;20054;-31
2021/01/09 08:57:20;;;;;;;13.80;9.00;;;1.80;98.50;;;;;;4988987;28;20038;-32
2021/01/09 08:59:46;;;;;;;13.43;8.68;;;1.80;98.50;;;;;;4989054;28;20391;-35
2021/01/09 09:02:16;;;;;;;13.43;8.75;;;1.80;98.50;;;;;;4988829;28;20037;-35
2021/01/09 09:04:42;;;;;;;12.93;8.40;;;1.80;98.50;;;;;;4988319;28;20065;-33
2021/01/09 09:07:09;;;;;;;12.00;7.55;;;1.80;98.50;;;;;;4987191;28;20033;-33
2021/01/09 09:09:39;;;;;;;12.13;7.45;;;1.80;98.50;;;;;;4987296;28;20097;-33
2021/01/09 09:12:06;;;;;;;11.10;7.57;;;1.90;98.50;;;;;;4971006;28;20081;-44
2021/01/09 09:14:31;;;;;;;12.43;7.05;;;1.90;98.50;;;;;;4980546;28;20027;-42
2021/01/09 09:17:03;;;;;;;10.07;6.60;;;2.00;98.50;;;;;;4968273;28;20023;-42
2021/01/09 09:19:35;;;;;;;8.87;6.03;;;2.00;98.40;;;;;;4966990;28;20019;-43
2021/01/09 09:22:03;;;;;;;15.55;6.93;;;2.00;98.40;;;;;;4968576;28;20069;-44
2021/01/09 09:24:42;;;;;;;8.95;6.30;;;2.10;98.40;;;;;;4967334;28;20077;-42
2021/01/09 09:27:38;;;;;;;9.65;6.47;;;2.00;98.30;;;;;;4967996;28;20085;-43
2021/01/09 09:30:07;;;;;;;12.63;6.88;;;2.10;98.30;;;;;;4955941;28;20035;-43
2021/01/09 09:32:33;;;;;;;8.82;5.57;;;2.00;98.20;;;;;;4966030;28;20097;-44
2021/01/09 09:35:18;;;;;;;10.25;5.88;;;2.10;98.60;;;;;;4967321;28;20031;-44
2021/01/09 09:37:44;;;;;;;11.27;6.28;;;2.10;98.30;;;;;;4967530;28;20022;-32
2021/01/09 09:40:38;;;;;;;11.75;6.53;;;2.10;98.20;;;;;;4980044;28;20034;-33
2021/01/09 09:43:15;;;;;;;9.50;5.60;;;2.10;98.10;;;;;;4975362;28;20033;-34
2021/01/09 09:45:57;;;;;;;10.50;5.97;;;2.00;98.20;;;;;;4975178;28;20174;-33
2021/01/09 09:48:37;;;;;;;9.85;5.72;;;2.00;98.30;;;;;;4977492;28;20030;-42
2021/01/09 09:51:06;;;;;;;13.57;6.13;;;2.00;98.40;;;;;;4982167;28;20160;-43
2021/01/09 09:53:35;;;;;;;10.52;6.03;;;2.00;98.50;;;;;;4988204;28;20177;-42
2021/01/09 09:56:17;;;;;;;9.27;5.45;;;2.00;98.50;;;;;;4988073;28;20030;-43
2021/01/09 09:58:44;;;;;;;11.98;5.82;;;2.10;98.60;;;;;;4988444;28;20084;-43
2021/01/09 10:01:19;;;;;;;8.82;5.93;;;2.30;98.80;;;;;;4977784;28;20459;-44
2021/01/09 10:03:46;;;;;;;14.57;6.05;;;2.40;98.50;;;;;;4968383;28;20455;-44
2021/01/09 10:06:11;;;;;;;11.07;5.75;;;2.50;98.30;;;;;;4968310;28;20590;-43
2021/01/09 10:08:37;;;;;;;9.30;5.97;;;2.60;98.10;;;;;;4968912;28;20065;-43
2021/01/09 10:11:03;;;;;;;18.10;6.85;;;2.70;98.20;;;;;;4968334;28;20030;-43
2021/01/09 10:13:30;;;;;;;8.93;6.07;;;2.80;97.90;;;;;;4968178;28;20046;-44
2021/01/09 10:15:56;;;;;;;13.63;6.53;;;2.90;97.90;;;;;;4968093;28;20054;-44
2021/01/09 10:18:22;;;;;;;17.00;6.70;;;3.00;97.80;;;;;;4967583;28;20027;-43
2021/01/09 10:20:48;;;;;;;9.88;5.78;;;3.00;97.50;;;;;;4968541;28;20114;-44
2021/01/09 10:23:14;;;;;;;12.60;5.60;;;3.00;97.50;;;;;;4967641;28;20475;-43
2021/01/09 10:25:39;;;;;;;11.02;5.70;;;2.90;97.40;;;;;;4968404;28;20109;-42
2021/01/09 10:28:05;;;;;;;12.82;5.95;;;2.90;97.50;;;;;;4968472;28;20034;-43
2021/01/09 10:30:30;;;;;;;8.23;5.20;;;2.80;97.40;;;;;;4966916;28;20110;-44
2021/01/09 10:32:59;;;;;;;10.20;4.70;;;2.70;97.50;;;;;;4967988;28;20043;-42
2021/01/09 10:35:25;;;;;;;10.30;5.40;;;2.70;97.60;;;;;;4967564;28;20030;-44
2021/01/09 10:37:50;;;;;;;13.43;6.38;;;2.60;97.60;;;;;;4968372;28;20035;-47
2021/01/09 10:40:16;;;;;;;9.68;5.65;;;2.60;97.70;;;;;;4967953;28;20102;-43
2021/01/09 10:42:42;;;;;;;10.45;5.63;;;2.60;97.90;;;;;;4968691;28;20142;-45
2021/01/09 10:45:08;;;;;;;8.40;4.85;;;2.60;97.90;;;;;;4966957;28;20031;-44
2021/01/09 10:47:34;;;;;;;9.25;5.50;;;2.60;97.90;;;;;;4967687;28;20022;-44
2021/01/09 10:49:59;;;;;;;8.82;5.28;;;2.60;97.90;;;;;;4968697;28;20030;-44
2021/01/09 10:52:25;;;;;;;7.05;4.72;;;2.70;97.90;;;;;;4969635;28;20042;-44
2021/01/09 10:54:50;;;;;;;6.60;4.43;;;2.70;98.00;;;;;;4986684;28;20037;-33
2021/01/09 10:57:16;;;;;;;16.08;6.10;;;2.80;98.10;;;;;;4987055;28;20026;-33
2021/01/09 10:59:42;;;;;;;8.57;4.68;;;2.90;98.20;;;;;;4986716;28;20030;-35
2021/01/09 11:02:08;;;;;;;8.32;4.88;;;3.00;98.20;;;;;;4987402;28;20117;-33
2021/01/09 11:04:34;;;;;;;7.40;4.38;;;3.10;98.00;;;;;;4986764;28;20054;-34
2021/01/09 11:06:59;;;;;;;5.30;4.00;;;3.10;97.90;;;;;;4986855;28;20109;-33
2021/01/09 11:09:26;;;;;;;8.05;3.92;;;3.20;97.90;;;;;;4986938;28;20030;-33
2021/01/09 11:11:51;;;;;;;7.68;4.22;;;3.30;97.90;;;;;;4987724;28;20022;-33
2021/01/09 11:14:18;;;;;;;7.30;4.07;;;3.30;97.80;;;;;;4985705;28;20048;-32
2021/01/09 11:16:43;;;;;;;7.50;4.07;;;3.30;97.80;;;;;;4987618;28;20018;-32
2021/01/09 11:19:11;;;;;;;7.00;5.00;;;3.40;97.80;;;;;;4987320;28;20037;-32
2021/01/09 11:21:40;;;;;;;11.48;5.32;;;3.50;97.80;;;;;;4986482;28;20027;-32
2021/01/09 11:24:06;;;;;;;7.78;4.38;;;3.40;97.70;;;;;;4987591;28;20022;-33
2021/01/09 11:26:32;;;;;;;8.95;4.60;;;3.50;97.70;;;;;;4986458;28;20030;-33
2021/01/09 11:28:58;;;;;;;6.43;4.57;;;3.50;97.70;;;;;;4986847;28;20115;-33
2021/01/09 11:31:24;;;;;;;10.98;5.82;;;3.60;97.70;;;;;;4987181;28;20470;-46
2021/01/09 11:33:50;;;;;;;7.70;4.80;;;3.70;97.50;;;;;;4987117;28;20034;-45
2021/01/09 11:36:16;;;;;;;7.57;4.22;;;3.80;97.60;;;;;;4986503;28;20500;-43
2021/01/09 11:38:42;;;;;;;13.27;5.75;;;3.90;97.60;;;;;;4987205;28;20041;-43
2021/01/09 11:41:08;;;;;;;10.30;5.15;;;4.10;97.50;;;;;;4985040;28;20109;-44
2021/01/09 11:43:34;;;;;;;8.68;4.72;;;4.30;97.40;;;;;;4986337;28;20451;-42
2021/01/09 11:46:00;;;;;;;8.38;4.38;;;4.40;97.30;;;;;;4985814;28;20101;-43
2021/01/09 11:48:27;;;;;;;8.02;4.90;;;4.50;97.10;;;;;;4972621;28;20047;-43
2021/01/09 11:50:53;;;;;;;8.27;4.32;;;4.60;96.90;;;;;;4971427;28;20082;-47
2021/01/09 11:53:20;;;;;;;7.93;5.43;;;4.60;97.00;;;;;;4971487;28;20694;-42
2021/01/09 11:55:46;;;;;;;10.15;4.20;;;4.50;96.30;;;;;;4983013;28;20026;-46
2021/01/09 11:58:12;;;;;;;6.90;4.47;;;4.40;96.50;;;;;;4970832;28;20650;-43
2021/01/09 12:00:37;;;;;;;8.52;4.93;;;4.40;96.60;;;;;;4980259;28;20058;-43
2021/01/09 12:03:04;;;;;;;7.45;4.32;;;4.30;96.50;;;;;;4972495;28;20030;-43
2021/01/09 12:05:29;;;;;;;11.00;4.80;;;4.30;96.80;;;;;;4977287;28;20140;-44
2021/01/09 12:07:55;;;;;;;9.10;4.63;;;4.30;96.80;;;;;;4974598;28;20030;-44
2021/01/09 12:10:20;;;;;;;6.53;3.90;;;4.30;96.70;;;;;;4973767;28;20456;-43
2021/01/09 12:12:47;;;;;;;12.18;4.57;;;4.40;96.70;;;;;;4981409;28;20077;-44
2021/01/09 12:15:12;;;;;;;7.50;4.10;;;4.30;96.70;;;;;;4985114;28;20828;-33
2021/01/09 12:17:38;;;;;;;11.85;4.70;;;4.40;96.80;;;;;;4983264;28;20027;-32
2021/01/09 12:20:05;;;;;;;6.75;4.47;;;4.40;96.50;;;;;;4987093;28;20462;-33
2021/01/09 12:22:31;;;;;;;5.45;3.90;;;4.50;96.70;;;;;;4977032;28;20084;-33
2021/01/09 12:24:57;;;;;;;5.90;3.50;;;4.60;96.60;;;;;;4987953;28;20173;-42
2021/01/09 12:27:25;;;;;;;7.22;3.65;;;4.70;96.50;;;;;;4970086;28;20038;-42
2021/01/09 12:29:51;;;;;;;7.78;3.35;;;4.70;96.50;;;;;;4976141;28;20430;-43
2021/01/09 12:32:17;;;;;;;6.97;3.58;;;4.80;96.50;;;;;;4980483;28;20085;-43
2021/01/09 12:34:43;;;;;;;9.63;4.03;;;4.80;96.40;;;;;;4969146;28;20682;-43
2021/01/09 12:37:09;;;;;;;7.13;3.75;;;4.80;96.30;;;;;;4980474;28;20031;-43
2021/01/09 12:39:34;;;;;;;8.05;4.25;;;4.90;96.30;;;;;;4969069;28;20031;-43
2021/01/09 12:42:00;;;;;;;7.95;3.70;;;4.90;95.70;;;;;;4977954;28;20035;-43
2021/01/09 12:44:25;;;;;;;9.13;4.13;;;4.90;95.90;;;;;;4985992;28;20041;-43
2021/01/09 12:46:51;;;;;;;12.40;4.15;;;4.90;95.60;;;;;;4982096;28;20078;-43
2021/01/09 12:49:18;;;;;;;7.45;4.10;;;5.00;95.50;;;;;;4983873;28;20899;-43
2021/01/09 12:51:45;;;;;;;8.85;4.03;;;5.00;95.40;;;;;;4984331;28;20110;-43